Stations météo

Publicité
Dunstaffnage, Grande-Bretagne (99006): Température de l'air & dewpoint: 13.11.2017 20:00:00 - 19.11.2017 20:00:00 (GMT)Dunstaffnage, Grande-Bretagne (99006): Température de l'air -20cm: 13.11.2017 20:00:00 - 19.11.2017 20:00:00 (GMT)Dunstaffnage, Grande-Bretagne (99006): Vitesse du vent & gusts: 13.11.2017 20:00:00 - 19.11.2017 20:00:00 (GMT)Dunstaffnage, Grande-Bretagne (99006): Direction du vent: 13.11.2017 20:00:00 - 19.11.2017 20:00:00 (GMT)Dunstaffnage, Grande-Bretagne (99006): Quantités de précipitations: 13.11.2017 20:00:00 - 19.11.2017 20:00:00 (GMT)
Date & Time tt [°C] td [°C] tt -20cm [°C] ff [km/h] ff [knt] fx [km/h] fx [knt] dd rr [mm]
19.11.2017 20:00:00 - - - - - - - - -
19.11.2017 19:00:00 5,2 4,1 - 13 7 - - E 0,6
19.11.2017 18:00:00 5,3 3,8 - 11 6 - - E 0,2
19.11.2017 17:00:00 5,4 3,5 - 15 8 - - ESE 0,0
19.11.2017 16:00:00 6,0 3,5 - 13 7 - - SE 0,0
19.11.2017 15:00:00 5,4 3,7 - 11 6 - - ESE 0,0
19.11.2017 14:00:00 5,3 3,8 - 11 6 - - E 0,0
19.11.2017 13:00:00 4,9 3,4 - 9 5 - - E 0,0
19.11.2017 12:00:00 - - - - - - - - 0,0
19.11.2017 11:00:00 4,1 3,0 - 8 4 - - E 0,0
19.11.2017 10:00:00 3,0 2,3 - 5 3 - - ENE 0,0
19.11.2017 09:00:00 2,9 1,9 6,9 5 3 - - E 0,0
19.11.2017 08:00:00 3,7 2,3 - 4 2 - - SSE -
19.11.2017 07:00:00 3,5 2,6 - 4 2 - - WSW 0,0
19.11.2017 06:00:00 4,2 3,3 - 4 2 - - NNW 0,0
19.11.2017 05:00:00 2,7 2,1 - 8 4 - - SSW 0,0
19.11.2017 04:00:00 2,4 1,4 - 4 2 - - SW 0,0
19.11.2017 03:00:00 3,6 0,9 - 4 2 - - SSW 0,0
19.11.2017 02:00:00 6,1 2,6 - 22 12 - - NW 0,0
19.11.2017 01:00:00 5,1 2,3 - 11 6 - - W 0,0
19.11.2017 00:00:00 6,0 2,4 - 15 8 - - WNW 0,0
18.11.2017 23:00:00 6,3 2,0 - 21 11 - - WNW 0,0
18.11.2017 22:00:00 6,4 0,1 - 13 7 - - WNW 0,0
18.11.2017 21:00:00 6,8 -0,2 - 13 7 - - WNW 0,0
18.11.2017 20:00:00 6,9 -0,2 - 13 7 - - NW 0,0
18.11.2017 19:00:00 6,9 0,5 - 21 11 - - NW 0,0
18.11.2017 18:00:00 6,6 1,2 - 21 11 - - NW 0,0
18.11.2017 17:00:00 6,7 0,8 - 29 16 46 25 NW 0,0
18.11.2017 16:00:00 6,3 1,0 - 21 11 - - NW 0,0
18.11.2017 15:00:00 6,6 1,5 - 22 12 57 31 NW 0,0
18.11.2017 14:00:00 6,9 2,1 - 21 11 - - NW 0,0
18.11.2017 13:00:00 5,9 2,7 - 29 16 57 31 NW 0,4
18.11.2017 12:00:00 8,0 0,4 - 28 15 - - WNW 0,0
18.11.2017 11:00:00 6,7 1,9 - 26 14 - - NW 0,0
18.11.2017 10:00:00 6,9 2,1 - 22 12 - - WNW 0,0
18.11.2017 09:00:00 5,9 2,6 7,5 15 8 - - W 0,0
18.11.2017 08:00:00 6,3 2,0 - 22 12 - - NW 0,0
18.11.2017 07:00:00 5,8 2,5 - 16 9 - - WNW 0,0
18.11.2017 06:00:00 6,7 2,5 - 16 9 - - WNW 0,0
18.11.2017 05:00:00 5,7 3,2 - 15 8 48 26 WNW 0,4
18.11.2017 04:00:00 7,4 3,1 - 21 11 46 25 WNW 0,0
18.11.2017 03:00:00 7,4 4,0 - 21 11 61 33 W 0,2
18.11.2017 02:00:00 7,5 4,9 - 26 14 52 28 W 0,0
18.11.2017 01:00:00 7,5 4,9 - 29 16 63 34 W 0,2
18.11.2017 00:00:00 7,5 5,5 - 41 22 57 31 W 0,6
17.11.2017 23:00:00 8,3 5,6 - 35 19 67 36 W 0,2
17.11.2017 22:00:00 9,0 4,5 - 39 21 59 32 W 0,0
17.11.2017 21:00:00 8,3 4,7 - 39 21 54 29 W 0,0
17.11.2017 20:00:00 8,6 4,5 - 37 20 54 29 W 0,0
17.11.2017 19:00:00 8,9 4,3 - 29 16 52 28 W 0,0
17.11.2017 18:00:00 8,5 4,3 - 29 16 52 28 WSW 0,0
17.11.2017 17:00:00 8,7 4,3 - 29 16 63 34 W 0,2
17.11.2017 16:00:00 7,8 5,4 - 26 14 - - W 0,4
17.11.2017 15:00:00 7,4 5,2 - 29 16 52 28 W 0,6
17.11.2017 14:00:00 8,6 3,9 - 26 14 - - W 0,0
17.11.2017 13:00:00 8,7 5,4 - 26 14 48 26 W 0,4
17.11.2017 12:00:00 7,6 5,4 - 29 16 48 26 W 1,8
17.11.2017 11:00:00 8,2 5,2 - 15 8 46 25 WSW 0,0
17.11.2017 10:00:00 7,7 5,4 - 28 15 48 26 W 1,0
17.11.2017 09:00:00 7,3 5,8 7,5 16 9 - - W 0,6
17.11.2017 08:00:00 7,5 4,8 - 18 10 - - WSW 0,2
17.11.2017 07:00:00 7,1 5,0 - 18 10 52 28 WSW 0,2
17.11.2017 06:00:00 6,6 4,8 - 11 6 - - SW 0,4
17.11.2017 05:00:00 7,9 3,7 - 22 12 - - WSW 0,0
17.11.2017 04:00:00 7,4 4,6 - 26 14 - - W 0,0
17.11.2017 03:00:00 6,8 3,8 - 8 4 - - SSW 0,2
17.11.2017 02:00:00 7,1 4,2 - 22 12 - - W 0,0
17.11.2017 01:00:00 7,6 3,7 - 16 9 - - W 0,0
17.11.2017 00:00:00 7,4 2,5 - 22 12 - - WSW 0,0
16.11.2017 23:00:00 7,0 3,1 - 16 9 - - WSW 0,0
16.11.2017 22:00:00 6,8 3,3 - 21 11 - - WSW 0,0
16.11.2017 21:00:00 6,5 3,5 - 16 9 - - W 0,0
16.11.2017 20:00:00 7,1 4,6 - 31 17 - - W 0,0
16.11.2017 19:00:00 5,7 4,0 - 16 9 46 25 WNW 1,0
16.11.2017 18:00:00 6,8 2,8 - 24 13 - - W 0,0
16.11.2017 17:00:00 7,4 2,8 - 28 15 - - W 0,0
16.11.2017 16:00:00 7,3 3,0 - 24 13 54 29 W 0,0
16.11.2017 15:00:00 7,1 3,2 - 24 13 - - W 0,0
16.11.2017 14:00:00 7,4 2,2 - 31 17 55 30 W 0,0
16.11.2017 13:00:00 8,1 1,3 - 34 18 46 25 W 0,0
16.11.2017 12:00:00 7,8 2,9 - 31 17 54 29 W 0,0
16.11.2017 11:00:00 7,4 1,9 - 35 19 59 32 W 0,0
16.11.2017 10:00:00 7,8 3,3 - 31 17 57 31 W 0,0
16.11.2017 09:00:00 7,3 2,6 8,0 24 13 48 26 WNW 0,0
16.11.2017 08:00:00 6,8 3,8 - 29 16 74 40 W 0,6
16.11.2017 07:00:00 6,8 4,5 - 21 11 70 38 WSW 0,6
16.11.2017 06:00:00 8,1 5,6 - 39 21 61 33 W 0,4
16.11.2017 05:00:00 8,4 7,6 - 21 11 46 25 WSW 2,2
16.11.2017 04:00:00 8,3 6,5 - 34 18 55 30 W 1,6
16.11.2017 03:00:00 10,9 9,2 - 24 13 48 26 S 0,0
16.11.2017 02:00:00 11,3 8,8 - 24 13 48 26 S 0,0
16.11.2017 01:00:00 11,1 8,9 - 26 14 - - S 0,0
16.11.2017 00:00:00 10,7 8,8 - 22 12 - - S 0,0
15.11.2017 23:00:00 10,0 8,7 - 22 12 - - S 0,4
15.11.2017 22:00:00 9,3 8,1 - 28 15 46 25 S 0,4
15.11.2017 21:00:00 9,2 7,5 - 22 12 - - S 0,0
15.11.2017 20:00:00 9,1 6,9 - 11 6 - - SSE 0,2
15.11.2017 19:00:00 9,3 6,1 - 13 7 - - S -
15.11.2017 18:00:00 9,1 6,0 - 11 6 - - SSE 0,0
15.11.2017 17:00:00 9,2 6,2 - 11 6 - - SSE 0,0
15.11.2017 16:00:00 9,0 6,5 - 8 4 - - ESE 0,0
15.11.2017 15:00:00 9,1 6,5 - 9 5 - - ESE 0,0
15.11.2017 14:00:00 9,1 6,6 - 8 4 - - SE 0,0
15.11.2017 13:00:00 8,8 6,7 - 13 7 - - ESE 0,0
15.11.2017 12:00:00 8,0 6,7 - 15 8 - - ESE 0,0
15.11.2017 11:00:00 8,0 6,2 - 13 7 - - SE 0,0
15.11.2017 10:00:00 7,0 6,1 - 13 7 - - ESE 0,0
15.11.2017 09:00:00 6,7 6,1 7,7 11 6 - - E 0,0
15.11.2017 08:00:00 6,6 5,9 - 5 3 - - SE 0,0
15.11.2017 07:00:00 6,2 5,7 - 11 6 - - E 0,0
15.11.2017 06:00:00 6,6 6,1 - 2 1 - - S 0,2
15.11.2017 05:00:00 7,1 6,4 - 8 4 - - ENE 0,0
15.11.2017 04:00:00 6,9 5,7 - 8 4 - - SSW 0,0
15.11.2017 03:00:00 - - - - - - - - 0,0
15.11.2017 02:00:00 7,3 6,1 - 9 5 - - WSW 0,0
15.11.2017 01:00:00 8,2 5,5 - 15 8 - - W 0,0
15.11.2017 00:00:00 8,7 5,9 - 11 6 - - W 0,0
14.11.2017 23:00:00 9,1 6,7 - 13 7 - - WNW 0,0
14.11.2017 22:00:00 8,4 5,6 - 9 5 - - W 0,0
14.11.2017 21:00:00 6,9 6,1 - 9 5 - - SW 0,0
14.11.2017 20:00:00 6,9 5,4 - 5 3 - - SW 0,0
14.11.2017 19:00:00 7,3 5,5 - 5 3 - - WSW 0,0
14.11.2017 18:00:00 8,4 5,4 - 8 4 - - WSW 0,0
14.11.2017 17:00:00 8,1 6,7 - 8 4 - - SW 0,2
14.11.2017 16:00:00 9,4 6,3 - - - - - - 0,0
14.11.2017 15:00:00 9,5 6,1 - - - - - - 0,0
14.11.2017 14:00:00 10,0 6,0 - - - - - - 0,0
14.11.2017 13:00:00 10,2 6,0 - - - - - - 0,0
14.11.2017 12:00:00 - - - - - - - - 0,0
14.11.2017 11:00:00 9,5 7,3 - - - - - - 0,0
14.11.2017 10:00:00 8,9 7,0 - - - - - - 0,0
14.11.2017 09:00:00 - - - - - - - - 0,0
14.11.2017 08:00:00 9,2 6,5 - - - - - - 0,2
14.11.2017 07:00:00 9,0 7,7 - - - - - - 0,0
14.11.2017 06:00:00 9,0 7,9 - - - - - - 0,2
14.11.2017 05:00:00 9,3 7,5 - - - - - - 0,0
14.11.2017 04:00:00 9,2 7,6 - - - - - - 0,0
14.11.2017 03:00:00 9,9 7,6 - - - - - - 0,0
14.11.2017 02:00:00 9,8 8,3 - - - - - - 0,0
14.11.2017 01:00:00 9,5 8,6 - - - - - - 0,0
14.11.2017 00:00:00 9,9 8,8 - - - - - - 0,0
13.11.2017 23:00:00 11,3 10,9 - - - - - - 1,0
13.11.2017 22:00:00 11,7 11,0 - - - - - - 0,2
13.11.2017 21:00:00 11,8 11,3 - - - - - - 0,0
13.11.2017 20:00:00 11,5 11,3 - - - - - - 0,4

tt = Température de l'air
td = dewpoint
tt -20cm = Température de l'air -20cm
ff = Vitesse du vent
fx = gusts
dd = Direction du vent
rr = Quantités de précipitations

stations d'obs. à proximité